createdAt,value
2022-09-11T00:02:02.286Z,100775.73
2022-09-11T00:05:08.630Z,100778.16
2022-09-11T00:08:14.473Z,100786.45
2022-09-11T00:11:19.564Z,100785.99
2022-09-11T00:14:26.916Z,100784.95
2022-09-11T00:17:32.249Z,100791.70
2022-09-11T00:20:37.530Z,100796.39
2022-09-11T00:23:43.965Z,100799.52
2022-09-11T00:26:50.762Z,100788.53
2022-09-11T00:29:56.542Z,100798.20
2022-09-11T00:33:02.189Z,100798.58
2022-09-11T00:36:16.075Z,100783.47
2022-09-11T00:39:21.594Z,100793.47
2022-09-11T00:42:27.125Z,100786.96
2022-09-11T00:45:41.220Z,100769.78
2022-09-11T00:48:49.835Z,100785.28
2022-09-11T00:51:55.637Z,100786.16
2022-09-11T00:55:16.008Z,100776.44
2022-09-11T00:58:33.895Z,100781.62
2022-09-11T01:01:40.015Z,100777.56
2022-09-11T01:04:46.486Z,100780.67
2022-09-11T01:07:53.092Z,100775.55
2022-09-11T01:11:37.451Z,100779.00
2022-09-11T01:15:14.772Z,100761.52
2022-09-11T01:18:40.241Z,100753.46
2022-09-11T01:22:07.260Z,100747.33
2022-09-11T01:25:34.942Z,100750.62
2022-09-11T01:29:01.649Z,100744.30
2022-09-11T01:32:26.685Z,100743.48
2022-09-11T01:35:48.783Z,100743.52
2022-09-11T01:39:19.306Z,100738.44
2022-09-11T01:42:32.815Z,100738.83
2022-09-11T01:45:39.969Z,100734.56
2022-09-11T01:48:56.955Z,100727.70
2022-09-11T01:52:04.754Z,100715.06
2022-09-11T01:55:16.109Z,100708.23
2022-09-11T01:58:32.304Z,100703.63
2022-09-11T02:01:43.582Z,100695.41
2022-09-11T02:04:59.402Z,100695.25
2022-09-11T02:08:11.458Z,100688.06
2022-09-11T02:11:21.689Z,100672.47
2022-09-11T02:14:43.313Z,100688.59
2022-09-11T02:18:03.121Z,100681.41
2022-09-11T02:21:09.813Z,100675.09
2022-09-11T02:24:18.710Z,100666.20
2022-09-11T02:27:29.819Z,100661.39
2022-09-11T02:30:37.575Z,100655.04
2022-09-11T02:33:51.242Z,100645.44
2022-09-11T02:37:27.035Z,100648.18
2022-09-11T02:40:55.378Z,100647.17
2022-09-11T02:44:13.855Z,100636.88
2022-09-11T02:47:47.829Z,100634.50
2022-09-11T02:51:03.853Z,100635.86
2022-09-11T02:54:46.918Z,100632.62
2022-09-11T02:57:58.117Z,100635.54
2022-09-11T03:01:05.007Z,100632.28
2022-09-11T03:04:11.340Z,100633.84
2022-09-11T03:07:18.659Z,100635.36
2022-09-11T03:10:25.504Z,100635.55
2022-09-11T03:13:31.744Z,100640.49
2022-09-11T03:16:41.016Z,100632.09
2022-09-11T03:19:47.255Z,100634.47
2022-09-11T03:22:55.588Z,100628.48
2022-09-11T03:26:02.317Z,100631.55
2022-09-11T03:29:10.604Z,100629.53
2022-09-11T03:32:17.944Z,100630.22
2022-09-11T03:35:26.227Z,100627.80
2022-09-11T03:38:32.620Z,100623.18
2022-09-11T03:41:40.327Z,100629.86
2022-09-11T03:44:46.478Z,100622.64
2022-09-11T03:47:54.520Z,100617.84
2022-09-11T03:51:01.214Z,100621.78
2022-09-11T03:54:07.657Z,100608.75
2022-09-11T03:57:15.301Z,100605.33
2022-09-11T04:00:23.251Z,100612.87
2022-09-11T04:03:30.833Z,100622.14
2022-09-11T04:06:37.339Z,100615.28
2022-09-11T04:09:46.018Z,100619.58
2022-09-11T04:12:51.067Z,100611.34
2022-09-11T04:15:56.837Z,100618.02
2022-09-11T04:19:05.676Z,100615.61
2022-09-11T04:22:12.701Z,100610.63
2022-09-11T04:25:19.268Z,100603.80
2022-09-11T04:28:26.996Z,100599.37
2022-09-11T04:31:35.866Z,100599.70
2022-09-11T04:34:42.557Z,100602.26
2022-09-11T04:37:50.407Z,100598.14
2022-09-11T04:40:56.833Z,100607.77
2022-09-11T04:44:05.450Z,100609.80
2022-09-11T04:47:13.105Z,100600.56
2022-09-11T04:50:19.578Z,100603.09
2022-09-11T04:53:28.872Z,100593.67
2022-09-11T04:56:35.765Z,100591.94
2022-09-11T04:59:42.466Z,100595.19
2022-09-11T05:02:49.988Z,100587.97
2022-09-11T05:05:55.765Z,100585.05
2022-09-11T05:09:01.421Z,100592.73
2022-09-11T05:12:10.109Z,100587.93
2022-09-11T05:15:16.799Z,100580.56
2022-09-11T05:18:24.735Z,100585.33
2022-09-11T05:21:33.133Z,100585.51
2022-09-11T05:24:40.635Z,100583.77
2022-09-11T05:27:48.420Z,100586.48
2022-09-11T05:30:56.635Z,100589.55
2022-09-11T05:34:06.500Z,100595.34
2022-09-11T05:37:12.651Z,100590.03
2022-09-11T05:40:20.658Z,100594.48
2022-09-11T05:43:26.105Z,100582.49
2022-09-11T05:46:33.990Z,100589.36
2022-09-11T05:49:39.394Z,100589.72
2022-09-11T05:52:48.095Z,100576.37
2022-09-11T05:55:54.496Z,100581.86
2022-09-11T05:59:00.296Z,100572.58
2022-09-11T06:02:08.421Z,100574.12
2022-09-11T06:05:17.439Z,100574.62
2022-09-11T06:08:24.144Z,100559.17
2022-09-11T06:11:33.430Z,100548.19
2022-09-11T06:14:41.067Z,100554.17
2022-09-11T06:17:47.221Z,100558.75
2022-09-11T06:20:55.539Z,100544.52
2022-09-11T06:24:05.522Z,100551.06
2022-09-11T06:27:14.011Z,100558.06
2022-09-11T06:30:21.313Z,100572.09
2022-09-11T06:33:31.412Z,100578.23
2022-09-11T06:36:39.572Z,100575.98
2022-09-11T06:39:46.715Z,100576.80
2022-09-11T06:42:55.289Z,100577.25
2022-09-11T06:46:01.829Z,100576.69
2022-09-11T06:49:09.335Z,100578.92
2022-09-11T06:52:34.838Z,100580.56
2022-09-11T06:55:42.870Z,100579.69
2022-09-11T06:58:50.024Z,100581.03
2022-09-11T07:01:57.505Z,100579.48
2022-09-11T07:05:03.721Z,100587.34
2022-09-11T07:08:12.711Z,100595.08
2022-09-11T07:11:19.821Z,100596.09
2022-09-11T07:14:27.620Z,100602.66
2022-09-11T07:17:34.807Z,100600.66
2022-09-11T07:20:43.197Z,100602.78
2022-09-11T07:23:51.662Z,100603.02
2022-09-11T07:26:58.442Z,100609.75
2022-09-11T07:30:06.303Z,100619.58
2022-09-11T07:33:15.476Z,100617.72
2022-09-11T07:36:24.336Z,100623.61
2022-09-11T07:39:31.056Z,100624.34
2022-09-11T07:42:40.539Z,100624.38
2022-09-11T07:45:48.143Z,100623.02
2022-09-11T07:48:55.286Z,100621.32
2022-09-11T07:52:02.836Z,100619.63
2022-09-11T07:55:13.842Z,100617.60
2022-09-11T07:58:20.446Z,100607.02
2022-09-11T08:01:34.017Z,100596.92
2022-09-11T08:04:40.038Z,100589.41
2022-09-11T08:07:46.898Z,100586.70
2022-09-11T08:10:53.756Z,100587.20
2022-09-11T08:14:08.587Z,100584.31
2022-09-11T08:17:14.358Z,100584.48
2022-09-11T08:20:22.814Z,100583.66
2022-09-11T08:23:30.027Z,100589.31
2022-09-11T08:26:39.229Z,100585.55
2022-09-11T08:29:44.150Z,100586.42
2022-09-11T08:32:52.385Z,100586.57
2022-09-11T08:36:00.189Z,100587.59
2022-09-11T08:39:11.913Z,100589.62
2022-09-11T08:42:25.040Z,100574.18
2022-09-11T08:45:35.184Z,100584.47
2022-09-11T08:48:46.319Z,100578.80
2022-09-11T08:51:52.348Z,100567.00
2022-09-11T08:55:02.401Z,100561.30
2022-09-11T08:58:22.513Z,100565.09
2022-09-11T09:02:00.182Z,100554.95
2022-09-11T09:05:43.955Z,100554.59
2022-09-11T09:09:06.146Z,100545.63
2022-09-11T09:12:24.654Z,100543.17
2022-09-11T09:15:49.117Z,100523.45
2022-09-11T09:19:02.282Z,100528.53
2022-09-11T09:22:38.096Z,100519.75
2022-09-11T09:25:47.786Z,100524.87
2022-09-11T09:29:05.822Z,100515.44
2022-09-11T09:32:18.199Z,100518.33
2022-09-11T09:35:57.249Z,100510.45
2022-09-11T09:39:05.816Z,100503.22
2022-09-11T09:42:38.318Z,100498.36
2022-09-11T09:46:31.272Z,100484.77
2022-09-11T09:49:41.561Z,100488.82
2022-09-11T09:52:48.946Z,100480.38
2022-09-11T09:55:54.679Z,100473.52
2022-09-11T09:59:14.063Z,100468.86
2022-09-11T10:02:19.837Z,100468.84
2022-09-11T10:05:46.370Z,100456.43
2022-09-11T10:08:52.863Z,100457.08
2022-09-11T10:11:59.557Z,100465.77
2022-09-11T10:15:14.508Z,100458.88
2022-09-11T10:18:53.493Z,100462.62
2022-09-11T10:21:58.124Z,100458.02
2022-09-11T10:25:26.917Z,100456.81
2022-09-11T10:28:45.157Z,100460.45
2022-09-11T10:31:56.252Z,100454.77
2022-09-11T10:35:05.205Z,100457.62
2022-09-11T10:38:27.091Z,100475.04
2022-09-11T10:41:43.027Z,100461.92
2022-09-11T10:44:49.940Z,100464.77
2022-09-11T10:47:57.252Z,100465.13
2022-09-11T10:51:06.272Z,100453.75
2022-09-11T10:54:54.443Z,100455.73
2022-09-11T10:58:07.248Z,100445.38
2022-09-11T11:01:13.311Z,100446.53
2022-09-11T11:04:18.437Z,100447.72
2022-09-11T11:08:09.053Z,100447.52
2022-09-11T11:11:39.695Z,100438.92
2022-09-11T11:15:30.073Z,100443.33
2022-09-11T11:18:51.371Z,100442.05
2022-09-11T11:22:16.510Z,100447.44
2022-09-11T11:25:36.177Z,100454.92
2022-09-11T11:29:12.556Z,100457.95
2022-09-11T11:32:44.860Z,100462.87
2022-09-11T11:36:11.245Z,100461.10
2022-09-11T11:39:39.921Z,100455.77
2022-09-11T11:42:56.811Z,100451.95
2022-09-11T11:46:11.305Z,100454.58
2022-09-11T11:49:30.380Z,100451.74
2022-09-11T11:52:54.432Z,100439.95
2022-09-11T11:56:49.854Z,100440.34
2022-09-11T12:00:04.342Z,100446.86
2022-09-11T12:03:24.133Z,100444.11
2022-09-11T12:06:33.433Z,100441.91
2022-09-11T12:09:40.480Z,100449.14
2022-09-11T12:12:53.417Z,100445.40
2022-09-11T12:16:25.264Z,100437.70
2022-09-11T12:19:34.863Z,100437.50
2022-09-11T12:22:56.408Z,100435.39
2022-09-11T12:26:05.886Z,100424.46
2022-09-11T12:29:33.589Z,100422.61
2022-09-11T12:32:41.866Z,100428.59
2022-09-11T12:36:05.861Z,100423.37
2022-09-11T12:39:21.007Z,100416.23
2022-09-11T12:42:42.625Z,100417.37
2022-09-11T12:45:54.228Z,100419.22
2022-09-11T12:49:22.530Z,100420.91
2022-09-11T12:52:33.536Z,100413.71
2022-09-11T12:55:51.276Z,100412.84
2022-09-11T12:58:59.933Z,100411.59
2022-09-11T13:02:06.168Z,100398.00
2022-09-11T13:05:13.820Z,100403.63
2022-09-11T13:08:36.029Z,100405.34
2022-09-11T13:12:04.328Z,100401.66
2022-09-11T13:15:13.204Z,100402.40
2022-09-11T13:18:47.832Z,100407.90
2022-09-11T13:21:56.141Z,100408.88
2022-09-11T13:25:02.932Z,100408.02
2022-09-11T13:28:21.369Z,100414.70
2022-09-11T13:31:36.982Z,100416.55
2022-09-11T13:34:45.416Z,100409.28
2022-09-11T13:37:54.542Z,100399.13
2022-09-11T13:41:07.670Z,100392.77
2022-09-11T13:44:15.297Z,100387.59
2022-09-11T13:47:38.498Z,100383.26
2022-09-11T13:50:44.987Z,100384.63
2022-09-11T13:53:52.517Z,100376.27
2022-09-11T13:57:15.681Z,100385.58
2022-09-11T14:00:23.329Z,100394.34
2022-09-11T14:03:43.550Z,100382.67
2022-09-11T14:06:50.382Z,100372.06
2022-09-11T14:09:56.941Z,100368.34
2022-09-11T14:13:20.994Z,100365.58
2022-09-11T14:16:36.786Z,100361.77
2022-09-11T14:19:47.171Z,100348.09
2022-09-11T14:22:53.390Z,100341.15
2022-09-11T14:26:25.042Z,100339.27
2022-09-11T14:29:47.826Z,100339.45
2022-09-11T14:32:54.997Z,100329.88
2022-09-11T14:36:07.022Z,100329.77
2022-09-11T14:39:11.339Z,100323.88
2022-09-11T14:42:17.811Z,100323.91
2022-09-11T14:45:35.262Z,100324.19
2022-09-11T14:48:42.450Z,100314.56
2022-09-11T14:51:53.922Z,100317.83
2022-09-11T14:54:59.795Z,100316.97
2022-09-11T14:58:05.418Z,100311.66
2022-09-11T15:01:16.952Z,100306.36
2022-09-11T15:04:41.712Z,100306.05
2022-09-11T15:07:55.539Z,100301.45
2022-09-11T15:11:03.353Z,100307.47
2022-09-11T15:14:23.447Z,100306.16
2022-09-11T15:17:19.363Z,100298.11
2022-09-11T15:20:26.194Z,100289.72
2022-09-11T15:23:31.915Z,100297.95
2022-09-11T15:26:37.920Z,100290.45
2022-09-11T15:29:47.635Z,100293.05
2022-09-11T15:32:53.649Z,100281.94
2022-09-11T15:36:01.051Z,100276.80
2022-09-11T15:39:07.992Z,100266.52
2022-09-11T15:42:15.726Z,100262.59
2022-09-11T15:45:24.090Z,100255.56
2022-09-11T15:48:31.175Z,100237.78
2022-09-11T15:51:38.714Z,100248.65
2022-09-11T15:54:46.173Z,100253.80
2022-09-11T15:57:53.112Z,100241.70
2022-09-11T16:01:00.307Z,100241.47
2022-09-11T16:04:08.397Z,100243.30
2022-09-11T16:07:16.873Z,100249.88
2022-09-11T16:10:22.208Z,100242.16
2022-09-11T16:13:29.334Z,100255.77
2022-09-11T16:16:35.836Z,100257.99
2022-09-11T16:19:41.550Z,100253.02
2022-09-11T16:22:49.015Z,100248.23
2022-09-11T16:25:57.969Z,100250.50
2022-09-11T16:29:03.117Z,100249.19
2022-09-11T16:32:08.791Z,100251.59
2022-09-11T16:35:17.266Z,100252.80
2022-09-11T16:38:23.861Z,100251.59
2022-09-11T16:41:35.137Z,100257.43
2022-09-11T16:44:37.723Z,100245.59
2022-09-11T16:47:32.175Z,100257.55
2022-09-11T16:50:36.637Z,100253.44
2022-09-11T16:53:43.922Z,100250.18
2022-09-11T16:56:50.915Z,100241.82
2022-09-11T16:59:57.013Z,100244.88
2022-09-11T17:25:19.137Z,100215.17
2022-09-11T17:28:26.379Z,100208.22
2022-09-11T17:31:32.864Z,100215.20
2022-09-11T17:34:41.476Z,100214.31
2022-09-11T17:37:47.598Z,100213.09
2022-09-11T17:40:54.306Z,100209.61
2022-09-11T17:44:00.646Z,100202.05
2022-09-11T17:47:07.469Z,100199.62
2022-09-11T17:50:14.207Z,100204.59
2022-09-11T17:53:19.807Z,100207.66
2022-09-11T17:56:28.297Z,100194.95
2022-09-11T17:59:35.352Z,100209.00
2022-09-11T18:02:41.267Z,100210.17
2022-09-11T18:05:46.315Z,100205.35
2022-09-11T18:08:53.399Z,100200.49
2022-09-11T18:12:01.820Z,100178.02
2022-09-11T18:15:07.306Z,100171.66
2022-09-11T18:18:13.352Z,100174.56
2022-09-11T18:21:21.808Z,100171.94
2022-09-11T18:24:29.762Z,100167.62
2022-09-11T18:27:36.988Z,100169.00
2022-09-11T18:30:42.071Z,100160.24
2022-09-11T18:33:52.651Z,100153.45
2022-09-11T18:37:03.983Z,100150.16
2022-09-11T18:40:10.689Z,100141.42
2022-09-11T18:43:15.760Z,100132.13
2022-09-11T18:46:21.286Z,100120.11
2022-09-11T18:49:28.853Z,100115.64
2022-09-11T18:52:36.874Z,100113.76
2022-09-11T18:55:43.543Z,100114.27
2022-09-11T18:58:55.263Z,100121.80
2022-09-11T19:02:02.935Z,100106.70
2022-09-11T19:05:08.542Z,100114.89
2022-09-11T19:08:16.177Z,100108.34
2022-09-11T19:11:29.045Z,100103.31
2022-09-11T19:14:37.070Z,100098.13
2022-09-11T19:17:47.740Z,100086.44
2022-09-11T19:20:53.766Z,100086.55
2022-09-11T19:24:02.732Z,100083.30
2022-09-11T19:27:10.187Z,100077.14
2022-09-11T19:30:20.858Z,100077.14
2022-09-11T19:33:29.131Z,100076.11
2022-09-11T19:36:37.663Z,100076.28
2022-09-11T19:39:43.280Z,100069.80
2022-09-11T19:42:50.757Z,100062.94
2022-09-11T19:45:56.630Z,100061.72
2022-09-11T19:49:04.132Z,100053.28
2022-09-11T19:52:09.896Z,100045.70
2022-09-11T19:55:17.273Z,100040.52
2022-09-11T19:58:24.153Z,100046.21
2022-09-11T20:01:32.615Z,100045.70
2022-09-11T20:04:39.872Z,100047.70
2022-09-11T20:07:46.143Z,100046.47
2022-09-11T20:10:52.483Z,100044.90
2022-09-11T20:14:00.290Z,100043.64
2022-09-11T20:17:07.721Z,100045.16
2022-09-11T20:20:14.247Z,100044.09
2022-09-11T20:23:19.869Z,100040.29
2022-09-11T20:26:38.314Z,100033.77
2022-09-11T20:29:46.429Z,100031.33
2022-09-11T20:32:53.618Z,100032.51
2022-09-11T20:36:00.565Z,100029.25
2022-09-11T20:39:10.114Z,100026.15
2022-09-11T20:42:16.440Z,100019.17
2022-09-11T20:45:24.590Z,100019.88
2022-09-11T20:48:29.909Z,100021.61
2022-09-11T20:51:37.841Z,100016.22
2022-09-11T20:54:45.927Z,100013.47
2022-09-11T20:57:52.128Z,100016.88
2022-09-11T21:01:00.655Z,100014.45
2022-09-11T21:04:10.866Z,100013.42
2022-09-11T21:07:18.115Z,99994.70
2022-09-11T21:10:25.278Z,99999.34
2022-09-11T21:13:32.559Z,99989.72
2022-09-11T21:16:39.073Z,99986.45
2022-09-11T21:19:45.477Z,99984.63
2022-09-11T21:22:53.550Z,99987.78
2022-09-11T21:25:59.073Z,99985.34
2022-09-11T21:29:05.341Z,99966.46
2022-09-11T21:32:11.504Z,99965.39
2022-09-11T21:35:16.841Z,99966.97
2022-09-11T21:38:23.060Z,99963.77
2022-09-11T21:41:28.619Z,99962.29
2022-09-11T21:44:35.143Z,99956.80
2022-09-11T21:47:41.500Z,99954.36
2022-09-11T21:50:46.831Z,99953.44
2022-09-11T21:53:55.802Z,99948.05
2022-09-11T21:57:01.708Z,99949.23
2022-09-11T22:00:15.802Z,99960.22
2022-09-11T22:03:21.225Z,99955.27
2022-09-11T22:06:27.666Z,99949.63
2022-09-11T22:09:33.934Z,99943.17
2022-09-11T22:12:39.436Z,99934.10
2022-09-11T22:15:45.855Z,99935.79
2022-09-11T22:18:55.773Z,99932.13
2022-09-11T22:22:05.447Z,99936.55
2022-09-11T22:25:12.389Z,99938.64
2022-09-11T22:28:19.952Z,99944.03
2022-09-11T22:31:31.681Z,99941.08
2022-09-11T22:34:39.455Z,99938.98
2022-09-11T22:37:47.190Z,99944.08
2022-09-11T22:40:53.034Z,99934.26
2022-09-11T22:43:59.355Z,99934.56
2022-09-11T22:47:05.472Z,99923.38
2022-09-11T22:50:11.232Z,99927.84
2022-09-11T22:53:18.483Z,99927.19
2022-09-11T22:56:24.942Z,99934.36
2022-09-11T22:59:30.116Z,99922.75
2022-09-11T23:02:35.406Z,99926.53
2022-09-11T23:06:00.097Z,99920.58
2022-09-11T23:09:07.815Z,99923.94
2022-09-11T23:12:13.817Z,99921.70
2022-09-11T23:15:20.565Z,99915.44
2022-09-11T23:18:26.545Z,99916.21
2022-09-11T23:21:31.885Z,99913.77
2022-09-11T23:24:37.424Z,99909.59
2022-09-11T23:27:43.887Z,99907.30
2022-09-11T23:30:54.654Z,99897.22
2022-09-11T23:34:01.234Z,99898.94
2022-09-11T23:37:07.396Z,99904.16
2022-09-11T23:40:12.173Z,99903.70
2022-09-11T23:43:17.199Z,99906.53
2022-09-11T23:46:22.336Z,99912.27
2022-09-11T23:49:27.871Z,99906.06
2022-09-11T23:52:32.731Z,99904.31
2022-09-11T23:55:42.288Z,99909.92
2022-09-11T23:58:48.348Z,99905.50
